sensor_id;sensor_type;location;lat;lon;timestamp;pressure;altitude;pressure_sealevel;temperature;humidity
21300;BME280;10809;49.476;11.016;2022-10-16T05:12:26;98248.69;;;14.79;75.75
21300;BME280;10809;49.476;11.016;2022-10-16T05:14:56;98253.19;;;14.79;75.95
21300;BME280;10809;49.476;11.016;2022-10-16T05:17:28;98255.88;;;14.79;76.00
21300;BME280;10809;49.476;11.016;2022-10-16T05:19:59;98254.16;;;14.77;76.16
21300;BME280;10809;49.476;11.016;2022-10-16T05:22:29;98257.78;;;14.77;76.12
21300;BME280;10809;49.476;11.016;2022-10-16T05:25:00;98258.75;;;14.76;76.09
21300;BME280;10809;49.476;11.016;2022-10-16T05:27:30;98263.22;;;14.75;75.99
21300;BME280;10809;49.476;11.016;2022-10-16T05:30:01;98264.19;;;14.74;75.98
21300;BME280;10809;49.476;11.016;2022-10-16T05:32:31;98266.97;;;14.73;75.98
21300;BME280;10809;49.476;11.016;2022-10-16T05:35:01;98265.25;;;14.71;76.08
21300;BME280;10809;49.476;11.016;2022-10-16T05:37:32;98276.88;;;14.70;76.13
21300;BME280;10809;49.476;11.016;2022-10-16T05:40:03;98295.53;;;14.70;76.06
21300;BME280;10809;49.476;11.016;2022-10-16T05:42:35;98293.84;;;14.69;76.09
21300;BME280;10809;49.476;11.016;2022-10-16T05:45:06;98298.31;;;14.69;76.29
21300;BME280;10809;49.476;11.016;2022-10-16T05:47:37;98298.31;;;14.69;76.31
21300;BME280;10809;49.476;11.016;2022-10-16T05:50:09;98307.28;;;14.68;76.35
21300;BME280;10809;49.476;11.016;2022-10-16T05:52:39;98309.97;;;14.68;76.18
21300;BME280;10809;49.476;11.016;2022-10-16T05:55:09;98309.97;;;14.68;76.41
21300;BME280;10809;49.476;11.016;2022-10-16T05:57:40;98306.44;;;14.67;76.40
21300;BME280;10809;49.476;11.016;2022-10-16T06:00:10;98301.09;;;14.67;76.49
21300;BME280;10809;49.476;11.016;2022-10-16T06:02:44;98296.63;;;14.68;76.50
21300;BME280;10809;49.476;11.016;2022-10-16T06:05:14;98299.19;;;14.69;76.51
21300;BME280;10809;49.476;11.016;2022-10-16T06:07:44;98299.19;;;14.69;76.59
21300;BME280;10809;49.476;11.016;2022-10-16T06:10:15;98300.88;;;14.70;76.36
21300;BME280;10809;49.476;11.016;2022-10-16T06:12:45;98307.91;;;14.71;76.70
21300;BME280;10809;49.476;11.016;2022-10-16T06:15:15;98315.78;;;14.73;76.55
21300;BME280;10809;49.476;11.016;2022-10-16T06:17:46;98310.44;;;14.73;76.59
21300;BME280;10809;49.476;11.016;2022-10-16T06:20:16;98318.34;;;14.74;76.90
21300;BME280;10809;49.476;11.016;2022-10-16T06:22:46;98320.06;;;14.76;77.13
21300;BME280;10809;49.476;11.016;2022-10-16T06:25:17;98318.13;;;14.77;76.78
21300;BME280;10809;49.476;11.016;2022-10-16T06:27:47;98316.19;;;14.80;76.84
21300;BME280;10809;49.476;11.016;2022-10-16T06:30:18;98306.28;;;14.82;76.80
21300;BME280;10809;49.476;11.016;2022-10-16T06:32:48;98313.31;;;14.83;76.88
21300;BME280;10809;49.476;11.016;2022-10-16T06:35:18;98323.88;;;14.84;76.85
21300;BME280;10809;49.476;11.016;2022-10-16T06:37:49;98317.44;;;14.87;76.85
21300;BME280;10809;49.476;11.016;2022-10-16T06:40:19;98323.53;;;14.89;76.85
21300;BME280;10809;49.476;11.016;2022-10-16T06:42:50;98319.88;;;14.90;77.16
21300;BME280;10809;49.476;11.016;2022-10-16T06:45:21;98319.66;;;14.93;77.08
21300;BME280;10809;49.476;11.016;2022-10-16T06:47:52;98323.09;;;14.95;76.72
21300;BME280;10809;49.476;11.016;2022-10-16T06:50:22;98322.09;;;14.96;77.12
21300;BME280;10809;49.476;11.016;2022-10-16T06:52:52;98322.03;;;14.97;76.55
21300;BME280;10809;49.476;11.016;2022-10-16T06:55:23;98324.59;;;14.99;76.81
21300;BME280;10809;49.476;11.016;2022-10-16T06:57:54;98344.94;;;15.00;76.71
21300;BME280;10809;49.476;11.016;2022-10-16T07:00:24;98345.81;;;15.00;76.59
21300;BME280;10809;49.476;11.016;2022-10-16T07:02:55;98361.81;;;15.00;76.62
21300;BME280;10809;49.476;11.016;2022-10-16T07:05:25;98354.63;;;15.01;76.63
21300;BME280;10809;49.476;11.016;2022-10-16T07:07:55;98367.03;;;15.02;76.47
21300;BME280;10809;49.476;11.016;2022-10-16T07:10:26;98373.31;;;15.01;76.73
21300;BME280;10809;49.476;11.016;2022-10-16T07:12:56;98379.50;;;15.01;76.59
21300;BME280;10809;49.476;11.016;2022-10-16T07:15:27;98379.38;;;15.03;76.40
21300;BME280;10809;49.476;11.016;2022-10-16T07:17:57;98369.69;;;15.02;76.93
21300;BME280;10809;49.476;11.016;2022-10-16T07:20:28;98370.41;;;15.04;76.54
21300;BME280;10809;49.476;11.016;2022-10-16T07:22:58;98385.47;;;15.05;76.72
21300;BME280;10809;49.476;11.016;2022-10-16T07:25:28;98400.50;;;15.06;76.69
21300;BME280;10809;49.476;11.016;2022-10-16T07:27:59;98401.38;;;15.06;76.70
21300;BME280;10809;49.476;11.016;2022-10-16T07:30:29;98395.91;;;15.08;76.56
21300;BME280;10809;49.476;11.016;2022-10-16T07:32:59;98404.75;;;15.08;76.54
21300;BME280;10809;49.476;11.016;2022-10-16T07:35:30;98407.31;;;15.10;76.76
21300;BME280;10809;49.476;11.016;2022-10-16T07:38:00;98417.03;;;15.11;76.96
21300;BME280;10809;49.476;11.016;2022-10-16T07:40:30;98411.47;;;15.14;76.92
21300;BME280;10809;49.476;11.016;2022-10-16T07:43:01;98409.63;;;15.14;76.67
21300;BME280;10809;49.476;11.016;2022-10-16T07:45:32;98405.06;;;15.16;76.60
21300;BME280;10809;49.476;11.016;2022-10-16T07:48:02;98402.28;;;15.18;76.62
21300;BME280;10809;49.476;11.016;2022-10-16T07:50:33;98395.13;;;15.18;76.80
21300;BME280;10809;49.476;11.016;2022-10-16T07:53:03;98400.34;;;15.20;76.92
21300;BME280;10809;49.476;11.016;2022-10-16T07:55:34;98409.09;;;15.22;76.97
21300;BME280;10809;49.476;11.016;2022-10-16T07:58:05;98408.03;;;15.24;76.86
21300;BME280;10809;49.476;11.016;2022-10-16T08:00:37;98415.81;;;15.27;76.84
21300;BME280;10809;49.476;11.016;2022-10-16T08:03:08;98407.56;;;15.30;76.83
21300;BME280;10809;49.476;11.016;2022-10-16T08:05:38;98416.31;;;15.32;76.87
21300;BME280;10809;49.476;11.016;2022-10-16T08:08:13;98425.72;;;15.38;76.70
21300;BME280;10809;49.476;11.016;2022-10-16T08:10:44;98422.94;;;15.39;76.84
21300;BME280;10809;49.476;11.016;2022-10-16T08:13:15;98424.63;;;15.40;76.53
21300;BME280;10809;49.476;11.016;2022-10-16T08:15:45;98439.56;;;15.43;76.60
21300;BME280;10809;49.476;11.016;2022-10-16T08:18:16;98426.09;;;15.44;76.49
21300;BME280;10809;49.476;11.016;2022-10-16T08:20:46;98439.34;;;15.46;76.27
21300;BME280;10809;49.476;11.016;2022-10-16T08:23:17;98431.34;;;15.46;76.42
21300;BME280;10809;49.476;11.016;2022-10-16T08:25:47;98425.88;;;15.47;76.23
21300;BME280;10809;49.476;11.016;2022-10-16T08:28:17;98423.22;;;15.47;76.48
21300;BME280;10809;49.476;11.016;2022-10-16T08:30:48;98426.63;;;15.49;76.15
21300;BME280;10809;49.476;11.016;2022-10-16T08:33:18;98423.03;;;15.50;76.42
21300;BME280;10809;49.476;11.016;2022-10-16T08:35:52;98430.81;;;15.53;76.88
21300;BME280;10809;49.476;11.016;2022-10-16T08:38:24;98433.97;;;15.58;77.08
21300;BME280;10809;49.476;11.016;2022-10-16T08:41:16;98435.47;;;15.62;76.62
21300;BME280;10809;49.476;11.016;2022-10-16T08:44:03;98437.66;;;15.68;76.85
21300;BME280;10809;49.476;11.016;2022-10-16T08:46:46;98436.34;;;15.74;76.97
21300;BME280;10809;49.476;11.016;2022-10-16T08:49:20;98441.25;;;15.80;77.38
21300;BME280;10809;49.476;11.016;2022-10-16T08:51:51;98446.00;;;15.87;77.46
21300;BME280;10809;49.476;11.016;2022-10-16T08:54:35;98446.41;;;15.94;77.21
21300;BME280;10809;49.476;11.016;2022-10-16T08:57:20;98440.38;;;16.03;77.20
21300;BME280;10809;49.476;11.016;2022-10-16T09:00:05;98446.13;;;16.09;76.86
21300;BME280;10809;49.476;11.016;2022-10-16T09:02:51;98435.78;;;16.16;76.82
21300;BME280;10809;49.476;11.016;2022-10-16T09:08:05;98449.09;;;16.28;76.25
21300;BME280;10809;49.476;11.016;2022-10-16T09:21:13;98447.13;;;16.65;76.29
21300;BME280;10809;49.476;11.016;2022-10-16T09:23:46;98452.75;;;16.73;75.94
21300;BME280;10809;49.476;11.016;2022-10-16T09:26:17;98456.75;;;16.79;75.89
21300;BME280;10809;49.476;11.016;2022-10-16T09:28:52;98461.72;;;16.83;75.29
21300;BME280;10809;49.476;11.016;2022-10-16T09:31:22;98462.47;;;16.85;75.01
21300;BME280;10809;49.476;11.016;2022-10-16T09:33:57;98465.84;;;16.87;74.70
21300;BME280;10809;49.476;11.016;2022-10-16T09:36:28;98468.53;;;16.87;74.52
21300;BME280;10809;49.476;11.016;2022-10-16T09:39:06;98475.84;;;16.85;74.53
21300;BME280;10809;49.476;11.016;2022-10-16T09:41:42;98473.28;;;16.84;74.36
21300;BME280;10809;49.476;11.016;2022-10-16T09:44:24;98472.56;;;16.82;74.27
21300;BME280;10809;49.476;11.016;2022-10-16T09:47:12;98479.94;;;16.78;74.13
21300;BME280;10809;49.476;11.016;2022-10-16T09:50:26;98475.81;;;16.74;74.23
21300;BME280;10809;49.476;11.016;2022-10-16T09:53:12;98472.66;;;16.69;73.92
21300;BME280;10809;49.476;11.016;2022-10-16T09:55:50;98471.19;;;16.65;73.82
21300;BME280;10809;49.476;11.016;2022-10-16T09:58:22;98475.09;;;16.61;73.89
21300;BME280;10809;49.476;11.016;2022-10-16T10:00:54;98480.66;;;16.58;74.05
21300;BME280;10809;49.476;11.016;2022-10-16T10:03:35;98480.91;;;16.55;74.18
21300;BME280;10809;49.476;11.016;2022-10-16T10:09:00;98484.41;;;16.56;74.67
21300;BME280;10809;49.476;11.016;2022-10-16T10:11:44;98484.28;;;16.57;74.99
21300;BME280;10809;49.476;11.016;2022-10-16T10:14:25;98472.28;;;16.63;75.20
21300;BME280;10809;49.476;11.016;2022-10-16T10:19:47;98481.16;;;16.74;75.55
21300;BME280;10809;49.476;11.016;2022-10-16T10:22:40;98480.44;;;16.83;75.78
21300;BME280;10809;49.476;11.016;2022-10-16T10:25:15;98482.41;;;16.92;75.66
21300;BME280;10809;49.476;11.016;2022-10-16T10:30:40;98482.78;;;17.10;75.49
21300;BME280;10809;49.476;11.016;2022-10-16T10:33:25;98473.34;;;17.17;75.33
21300;BME280;10809;49.476;11.016;2022-10-16T10:38:49;98478.56;;;17.29;74.27
21300;BME280;10809;49.476;11.016;2022-10-16T10:46:57;98481.69;;;17.45;74.22
21300;BME280;10809;49.476;11.016;2022-10-16T10:49:55;98472.31;;;17.51;74.06
21300;BME280;10809;49.476;11.016;2022-10-16T11:04:03;98484.69;;;17.74;73.69
21300;BME280;10809;49.476;11.016;2022-10-16T11:06:47;98492.34;;;17.78;73.24
21300;BME280;10809;49.476;11.016;2022-10-16T11:09:24;98481.50;;;17.80;73.18
21300;BME280;10809;49.476;11.016;2022-10-16T12:54:42;98482.25;;;19.37;68.36
21300;BME280;10809;49.476;11.016;2022-10-16T12:57:49;98485.22;;;19.34;68.68
21300;BME280;10809;49.476;11.016;2022-10-16T13:06:39;98483.38;;;19.34;68.73
21300;BME280;10809;49.476;11.016;2022-10-16T13:11:58;98488.63;;;19.36;68.21
21300;BME280;10809;49.476;11.016;2022-10-16T13:28:47;98491.03;;;19.88;67.46
21300;BME280;10809;49.476;11.016;2022-10-16T13:31:20;98482.69;;;19.91;66.63
21300;BME280;10809;49.476;11.016;2022-10-16T13:33:54;98495.03;;;19.94;66.30
21300;BME280;10809;49.476;11.016;2022-10-16T13:36:34;98490.63;;;19.93;66.39
21300;BME280;10809;49.476;11.016;2022-10-16T13:39:25;98495.19;;;19.92;66.80
21300;BME280;10809;49.476;11.016;2022-10-16T13:42:14;98490.78;;;19.91;66.80
21300;BME280;10809;49.476;11.016;2022-10-16T13:44:51;98488.94;;;19.92;66.37
21300;BME280;10809;49.476;11.016;2022-10-16T13:47:24;98499.56;;;19.93;66.73
21300;BME280;10809;49.476;11.016;2022-10-16T13:50:06;98502.81;;;19.97;66.81
21300;BME280;10809;49.476;11.016;2022-10-16T13:52:39;98504.09;;;20.02;66.93
21300;BME280;10809;49.476;11.016;2022-10-16T13:55:16;98507.22;;;20.07;65.68
21300;BME280;10809;49.476;11.016;2022-10-16T13:57:46;98505.94;;;20.11;66.14
21300;BME280;10809;49.476;11.016;2022-10-16T14:00:25;98504.41;;;20.18;65.82
21300;BME280;10809;49.476;11.016;2022-10-16T14:03:04;98512.06;;;20.23;65.70
21300;BME280;10809;49.476;11.016;2022-10-16T14:05:35;98509.94;;;20.26;65.17
21300;BME280;10809;49.476;11.016;2022-10-16T14:08:12;98515.91;;;20.30;65.57
21300;BME280;10809;49.476;11.016;2022-10-16T14:10:49;98513.78;;;20.33;65.00
21300;BME280;10809;49.476;11.016;2022-10-16T14:13:29;98515.34;;;20.36;64.78
21300;BME280;10809;49.476;11.016;2022-10-16T14:16:06;98514.06;;;20.40;64.81
21300;BME280;10809;49.476;11.016;2022-10-16T14:18:39;98518.31;;;20.42;64.89
21300;BME280;10809;49.476;11.016;2022-10-16T14:21:13;98515.22;;;20.47;65.02
21300;BME280;10809;49.476;11.016;2022-10-16T14:23:44;98515.59;;;20.52;64.51
21300;BME280;10809;49.476;11.016;2022-10-16T14:26:17;98508.81;;;20.57;64.44
21300;BME280;10809;49.476;11.016;2022-10-16T14:29:02;98504.72;;;20.63;64.74
21300;BME280;10809;49.476;11.016;2022-10-16T14:31:33;98506.97;;;20.67;63.83
21300;BME280;10809;49.476;11.016;2022-10-16T14:34:23;98519.44;;;20.68;64.29
21300;BME280;10809;49.476;11.016;2022-10-16T14:36:55;98514.06;;;20.68;63.35
21300;BME280;10809;49.476;11.016;2022-10-16T14:39:26;98507.13;;;20.66;62.50
21300;BME280;10809;49.476;11.016;2022-10-16T14:41:57;98513.06;;;20.60;62.81
21300;BME280;10809;49.476;11.016;2022-10-16T14:44:32;98511.94;;;20.53;62.83
21300;BME280;10809;49.476;11.016;2022-10-16T14:47:13;98514.50;;;20.45;63.59
21300;BME280;10809;49.476;11.016;2022-10-16T14:49:44;98516.19;;;20.36;62.65
21300;BME280;10809;49.476;11.016;2022-10-16T14:52:14;98514.22;;;20.29;62.66
21300;BME280;10809;49.476;11.016;2022-10-16T14:54:48;98520.94;;;20.23;63.10
21300;BME280;10809;49.476;11.016;2022-10-16T14:57:21;98518.13;;;20.15;62.84
21300;BME280;10809;49.476;11.016;2022-10-16T14:59:53;98517.69;;;20.10;62.99
21300;BME280;10809;49.476;11.016;2022-10-16T15:02:31;98514.56;;;20.05;63.40
21300;BME280;10809;49.476;11.016;2022-10-16T15:07:41;98518.81;;;19.98;63.04
21300;BME280;10809;49.476;11.016;2022-10-16T15:10:38;98520.06;;;19.94;63.68
21300;BME280;10809;49.476;11.016;2022-10-16T15:13:12;98518.50;;;19.92;63.02
21300;BME280;10809;49.476;11.016;2022-10-16T15:15:44;98518.78;;;19.89;63.02
21300;BME280;10809;49.476;11.016;2022-10-16T15:18:15;98519.91;;;19.86;63.25
21300;BME280;10809;49.476;11.016;2022-10-16T15:20:51;98516.50;;;19.84;63.11
21300;BME280;10809;49.476;11.016;2022-10-16T15:23:22;98523.16;;;19.80;63.02
21300;BME280;10809;49.476;11.016;2022-10-16T15:25:54;98516.19;;;19.77;63.03
21300;BME280;10809;49.476;11.016;2022-10-16T15:28:24;98531.78;;;19.74;63.50
21300;BME280;10809;49.476;11.016;2022-10-16T15:30:56;98531.03;;;19.72;63.53
21300;BME280;10809;49.476;11.016;2022-10-16T15:33:27;98534.00;;;19.69;63.41
21300;BME280;10809;49.476;11.016;2022-10-16T15:36:00;98535.28;;;19.65;63.93
21300;BME280;10809;49.476;11.016;2022-10-16T15:38:31;98548.97;;;19.62;63.78
21300;BME280;10809;49.476;11.016;2022-10-16T15:41:02;98547.53;;;19.58;63.68
21300;BME280;10809;49.476;11.016;2022-10-16T15:43:32;98549.50;;;19.56;63.43
21300;BME280;10809;49.476;11.016;2022-10-16T15:46:05;98540.88;;;19.52;64.01
21300;BME280;10809;49.476;11.016;2022-10-16T15:48:36;98550.91;;;19.50;64.15
21300;BME280;10809;49.476;11.016;2022-10-16T15:51:07;98552.00;;;19.48;64.14
21300;BME280;10809;49.476;11.016;2022-10-16T15:53:38;98552.25;;;19.45;63.99
21300;BME280;10809;49.476;11.016;2022-10-16T15:56:10;98549.72;;;19.43;63.82
21300;BME280;10809;49.476;11.016;2022-10-16T15:58:42;98557.19;;;19.40;63.94
21300;BME280;10809;49.476;11.016;2022-10-16T16:01:13;98555.63;;;19.37;64.06
21300;BME280;10809;49.476;11.016;2022-10-16T16:03:43;98561.25;;;19.34;64.01
21300;BME280;10809;49.476;11.016;2022-10-16T16:06:14;98560.53;;;19.32;64.34
21300;BME280;10809;49.476;11.016;2022-10-16T16:08:45;98559.13;;;19.28;64.20
21300;BME280;10809;49.476;11.016;2022-10-16T16:11:33;98555.84;;;19.25;64.44
21300;BME280;10809;49.476;11.016;2022-10-16T16:14:10;98563.16;;;19.23;64.35
21300;BME280;10809;49.476;11.016;2022-10-16T16:16:42;98562.47;;;19.21;64.34
21300;BME280;10809;49.476;11.016;2022-10-16T16:19:13;98559.31;;;19.16;64.47
21300;BME280;10809;49.476;11.016;2022-10-16T16:21:47;98567.50;;;19.14;64.23
21300;BME280;10809;49.476;11.016;2022-10-16T16:24:17;98576.69;;;19.12;64.30
21300;BME280;10809;49.476;11.016;2022-10-16T16:26:48;98568.91;;;19.09;64.29
21300;BME280;10809;49.476;11.016;2022-10-16T16:29:18;98567.16;;;19.08;64.46
21300;BME280;10809;49.476;11.016;2022-10-16T16:31:48;98566.56;;;19.04;64.08
21300;BME280;10809;49.476;11.016;2022-10-16T16:34:19;98571.25;;;19.02;64.47
21300;BME280;10809;49.476;11.016;2022-10-16T16:36:50;98582.09;;;19.01;64.55
21300;BME280;10809;49.476;11.016;2022-10-16T16:39:21;98581.50;;;18.97;64.56
21300;BME280;10809;49.476;11.016;2022-10-16T16:41:52;98595.06;;;18.96;64.98
21300;BME280;10809;49.476;11.016;2022-10-16T16:44:22;98589.97;;;18.93;64.79
21300;BME280;10809;49.476;11.016;2022-10-16T16:46:52;98594.59;;;18.91;64.89
21300;BME280;10809;49.476;11.016;2022-10-16T16:49:24;98593.03;;;18.88;64.98
21300;BME280;10809;49.476;11.016;2022-10-16T16:51:55;98597.78;;;18.85;65.26
21300;BME280;10809;49.476;11.016;2022-10-16T16:54:25;98599.78;;;18.83;65.26
21300;BME280;10809;49.476;11.016;2022-10-16T16:56:55;98607.09;;;18.81;65.40
21300;BME280;10809;49.476;11.016;2022-10-16T16:59:26;98602.84;;;18.78;65.87
21300;BME280;10809;49.476;11.016;2022-10-16T17:01:56;98606.75;;;18.74;65.69
21300;BME280;10809;49.476;11.016;2022-10-16T17:04:27;98612.22;;;18.73;65.74
21300;BME280;10809;49.476;11.016;2022-10-16T17:06:57;98616.00;;;18.70;65.89
21300;BME280;10809;49.476;11.016;2022-10-16T17:09:28;98614.31;;;18.69;66.01
21300;BME280;10809;49.476;11.016;2022-10-16T17:11:59;98621.75;;;18.66;66.16
21300;BME280;10809;49.476;11.016;2022-10-16T17:14:29;98619.34;;;18.63;66.10
21300;BME280;10809;49.476;11.016;2022-10-16T17:17:00;98619.59;;;18.60;66.22
21300;BME280;10809;49.476;11.016;2022-10-16T17:19:30;98618.88;;;18.58;66.05
21300;BME280;10809;49.476;11.016;2022-10-16T17:22:00;98615.44;;;18.56;66.13
21300;BME280;10809;49.476;11.016;2022-10-16T17:24:31;98618.38;;;18.53;65.81
21300;BME280;10809;49.476;11.016;2022-10-16T17:27:01;98623.03;;;18.51;65.84
21300;BME280;10809;49.476;11.016;2022-10-16T17:29:32;98623.16;;;18.49;65.96
21300;BME280;10809;49.476;11.016;2022-10-16T17:32:02;98638.41;;;18.49;65.81
21300;BME280;10809;49.476;11.016;2022-10-16T17:34:33;98636.72;;;18.48;65.97
21300;BME280;10809;49.476;11.016;2022-10-16T17:37:04;98634.16;;;18.46;66.01
21300;BME280;10809;49.476;11.016;2022-10-16T17:39:35;98635.97;;;18.46;65.84
21300;BME280;10809;49.476;11.016;2022-10-16T17:42:05;98628.06;;;18.44;65.94
21300;BME280;10809;49.476;11.016;2022-10-16T17:44:35;98623.69;;;18.43;65.84
21300;BME280;10809;49.476;11.016;2022-10-16T17:47:06;98625.63;;;18.41;65.75
21300;BME280;10809;49.476;11.016;2022-10-16T17:49:36;98622.94;;;18.41;65.81
21300;BME280;10809;49.476;11.016;2022-10-16T17:52:06;98631.09;;;18.40;65.97
21300;BME280;10809;49.476;11.016;2022-10-16T17:54:37;98631.97;;;18.40;65.53
21300;BME280;10809;49.476;11.016;2022-10-16T17:57:08;98638.41;;;18.38;65.73
21300;BME280;10809;49.476;11.016;2022-10-16T17:59:39;98641.09;;;18.38;65.36
21300;BME280;10809;49.476;11.016;2022-10-16T18:02:10;98634.03;;;18.37;65.54
21300;BME280;10809;49.476;11.016;2022-10-16T18:04:40;98640.28;;;18.37;65.25
21300;BME280;10809;49.476;11.016;2022-10-16T18:07:11;98640.28;;;18.37;65.41
21300;BME280;10809;49.476;11.016;2022-10-16T18:09:42;98635.03;;;18.36;65.50
21300;BME280;10809;49.476;11.016;2022-10-16T18:12:12;98644.03;;;18.35;65.38
21300;BME280;10809;49.476;11.016;2022-10-16T18:14:43;98644.91;;;18.35;65.35
21300;BME280;10809;49.476;11.016;2022-10-16T18:17:13;98644.03;;;18.35;65.51
21300;BME280;10809;49.476;11.016;2022-10-16T18:19:45;98652.06;;;18.35;65.69
21300;BME280;10809;49.476;11.016;2022-10-16T18:22:16;98657.56;;;18.33;65.50
21300;BME280;10809;49.476;11.016;2022-10-16T18:24:46;98649.53;;;18.33;65.43
21300;BME280;10809;49.476;11.016;2022-10-16T18:27:16;98650.50;;;18.32;65.60
21300;BME280;10809;49.476;11.016;2022-10-16T18:29:47;98663.06;;;18.32;65.64
21300;BME280;10809;49.476;11.016;2022-10-16T18:32:17;98652.31;;;18.32;65.30
21300;BME280;10809;49.476;11.016;2022-10-16T18:34:47;98652.44;;;18.30;65.44
21300;BME280;10809;49.476;11.016;2022-10-16T18:37:18;98657.81;;;18.30;65.60
21300;BME280;10809;49.476;11.016;2022-10-16T18:39:49;98653.44;;;18.29;65.86
21300;BME280;10809;49.476;11.016;2022-10-16T18:42:19;98658.94;;;18.28;65.94
21300;BME280;10809;49.476;11.016;2022-10-16T18:44:49;98666.97;;;18.28;65.63
21300;BME280;10809;49.476;11.016;2022-10-16T18:47:20;98663.56;;;18.26;65.59
21300;BME280;10809;49.476;11.016;2022-10-16T18:49:50;98661.84;;;18.25;65.48
21300;BME280;10809;49.476;11.016;2022-10-16T18:52:21;98670.88;;;18.24;65.78
21300;BME280;10809;49.476;11.016;2022-10-16T18:54:55;98672.81;;;18.22;66.08
21300;BME280;10809;49.476;11.016;2022-10-16T18:57:27;98675.63;;;18.20;66.10
21300;BME280;10809;49.476;11.016;2022-10-16T18:59:58;98675.75;;;18.19;66.20
21300;BME280;10809;49.476;11.016;2022-10-16T19:02:29;98684.03;;;18.16;66.03
21300;BME280;10809;49.476;11.016;2022-10-16T19:04:59;98683.31;;;18.13;65.96
21300;BME280;10809;49.476;11.016;2022-10-16T19:07:29;98690.63;;;18.12;65.99
21300;BME280;10809;49.476;11.016;2022-10-16T19:10:00;98690.75;;;18.10;65.94
21300;BME280;10809;49.476;11.016;2022-10-16T19:12:30;98693.69;;;18.07;66.09
21300;BME280;10809;49.476;11.016;2022-10-16T19:15:01;98702.81;;;18.04;66.31
21300;BME280;10809;49.476;11.016;2022-10-16T19:17:31;98704.75;;;18.02;66.33
21300;BME280;10809;49.476;11.016;2022-10-16T19:20:03;98704.16;;;17.99;66.04
21300;BME280;10809;49.476;11.016;2022-10-16T19:22:33;98711.56;;;17.95;66.12
21300;BME280;10809;49.476;11.016;2022-10-16T19:25:22;98704.00;;;17.89;66.05
21300;BME280;10809;49.476;11.016;2022-10-16T19:27:53;98713.25;;;17.85;66.06
21300;BME280;10809;49.476;11.016;2022-10-16T19:30:24;98710.06;;;17.80;65.91
21300;BME280;10809;49.476;11.016;2022-10-16T19:32:54;98708.75;;;17.75;65.97
21300;BME280;10809;49.476;11.016;2022-10-16T19:35:25;98710.06;;;17.69;66.12
21300;BME280;10809;49.476;11.016;2022-10-16T19:37:56;98715.75;;;17.65;66.18
21300;BME280;10809;49.476;11.016;2022-10-16T19:40:27;98708.31;;;17.57;65.89
21300;BME280;10809;49.476;11.016;2022-10-16T19:42:57;98717.59;;;17.53;66.19
21300;BME280;10809;49.476;11.016;2022-10-16T19:45:27;98716.22;;;17.48;66.14
21300;BME280;10809;49.476;11.016;2022-10-16T19:47:58;98713.88;;;17.43;66.40
21300;BME280;10809;49.476;11.016;2022-10-16T19:50:28;98709.75;;;17.39;66.57
21300;BME280;10809;49.476;11.016;2022-10-16T19:52:58;98712.66;;;17.36;66.48
21300;BME280;10809;49.476;11.016;2022-10-16T19:55:30;98713.00;;;17.32;66.73
21300;BME280;10809;49.476;11.016;2022-10-16T19:58:00;98714.94;;;17.30;66.56
21300;BME280;10809;49.476;11.016;2022-10-16T20:00:31;98715.19;;;17.27;66.73
21300;BME280;10809;49.476;11.016;2022-10-16T20:03:01;98719.94;;;17.23;66.88
21300;BME280;10809;49.476;11.016;2022-10-16T20:05:32;98713.94;;;17.20;66.39
21300;BME280;10809;49.476;11.016;2022-10-16T20:08:03;98722.22;;;17.17;66.66
21300;BME280;10809;49.476;11.016;2022-10-16T20:10:33;98728.78;;;17.13;66.69
21300;BME280;10809;49.476;11.016;2022-10-16T20:13:04;98732.47;;;17.10;66.58
21300;BME280;10809;49.476;11.016;2022-10-16T20:15:37;98736.38;;;17.06;66.98
21300;BME280;10809;49.476;11.016;2022-10-16T20:18:07;98736.59;;;17.03;66.99
21300;BME280;10809;49.476;11.016;2022-10-16T20:20:39;98744.00;;;17.00;66.69
21300;BME280;10809;49.476;11.016;2022-10-16T20:23:10;98746.03;;;16.96;66.97
21300;BME280;10809;49.476;11.016;2022-10-16T20:25:41;98741.88;;;16.92;66.86
21300;BME280;10809;49.476;11.016;2022-10-16T20:28:17;98738.69;;;16.87;66.72
21300;BME280;10809;49.476;11.016;2022-10-16T20:30:49;98746.94;;;16.84;66.66
21300;BME280;10809;49.476;11.016;2022-10-16T20:33:19;98746.44;;;16.79;66.70
21300;BME280;10809;49.476;11.016;2022-10-16T20:35:50;98758.22;;;16.77;66.60
21300;BME280;10809;49.476;11.016;2022-10-16T20:38:20;98752.25;;;16.73;66.57
21300;BME280;10809;49.476;11.016;2022-10-16T20:40:51;98758.78;;;16.69;66.91
21300;BME280;10809;49.476;11.016;2022-10-16T20:43:21;98756.44;;;16.65;66.66
21300;BME280;10809;49.476;11.016;2022-10-16T20:45:59;98756.78;;;16.60;66.43
21300;BME280;10809;49.476;11.016;2022-10-16T20:48:29;98752.63;;;16.56;66.64
21300;BME280;10809;49.476;11.016;2022-10-16T20:51:10;98753.81;;;16.52;66.65
21300;BME280;10809;49.476;11.016;2022-10-16T20:53:43;98760.22;;;16.50;66.73
21300;BME280;10809;49.476;11.016;2022-10-16T20:56:14;98770.28;;;16.46;66.89
21300;BME280;10809;49.476;11.016;2022-10-16T20:58:46;98768.69;;;16.43;67.11
21300;BME280;10809;49.476;11.016;2022-10-16T21:01:20;98767.09;;;16.41;66.90
21300;BME280;10809;49.476;11.016;2022-10-16T21:03:54;98782.50;;;16.37;67.04
21300;BME280;10809;49.476;11.016;2022-10-16T21:06:24;98772.88;;;16.35;66.87
21300;BME280;10809;49.476;11.016;2022-10-16T21:08:55;98772.25;;;16.31;66.91
21300;BME280;10809;49.476;11.016;2022-10-16T21:11:26;98771.50;;;16.29;67.23
21300;BME280;10809;49.476;11.016;2022-10-16T21:13:58;98775.25;;;16.27;66.91
21300;BME280;10809;49.476;11.016;2022-10-16T21:16:29;98780.78;;;16.24;67.25
21300;BME280;10809;49.476;11.016;2022-10-16T21:19:00;98778.31;;;16.21;67.08
21300;BME280;10809;49.476;11.016;2022-10-16T21:21:33;98782.91;;;16.19;67.44